createdAt,value
2023-04-01T00:01:14.910Z,98993.50
2023-04-01T00:03:42.336Z,98991.75
2023-04-01T00:06:14.776Z,98992.66
2023-04-01T00:08:41.972Z,98994.38
2023-04-01T00:11:09.111Z,99004.19
2023-04-01T00:13:36.869Z,99005.03
2023-04-01T00:16:13.475Z,99005.16
2023-04-01T00:18:51.305Z,99015.66
2023-04-01T00:21:21.744Z,99007.78
2023-04-01T00:23:50.386Z,99009.50
2023-04-01T00:26:20.108Z,99002.53
2023-04-01T00:28:48.133Z,99017.44
2023-04-01T00:31:15.605Z,99013.91
2023-04-01T00:33:42.848Z,99013.03
2023-04-01T00:36:13.052Z,99011.28
2023-04-01T00:38:41.642Z,99014.75
2023-04-01T00:41:11.776Z,99017.44
2023-04-01T00:43:38.750Z,99018.28
2023-04-01T00:46:06.090Z,99028.81
2023-04-01T00:48:37.713Z,99026.19
2023-04-01T00:51:29.501Z,99025.22
2023-04-01T00:54:02.653Z,99026.19
2023-04-01T00:56:37.970Z,99036.75
2023-04-01T00:59:20.972Z,99040.28
2023-04-01T01:01:51.603Z,99041.94
2023-04-01T01:04:28.292Z,99046.31
2023-04-01T01:07:13.938Z,99046.34
2023-04-01T01:09:46.747Z,99043.75
2023-04-01T01:12:23.669Z,99038.47
2023-04-01T01:15:27.388Z,99044.63
2023-04-01T01:18:15.526Z,99057.75
2023-04-01T01:21:39.593Z,99050.75
2023-04-01T01:24:29.658Z,99045.50
2023-04-01T01:27:11.642Z,99054.22
2023-04-01T01:30:10.777Z,99056.84
2023-04-01T01:33:18.676Z,99043.72
2023-04-01T01:35:55.134Z,99048.16
2023-04-01T01:38:35.148Z,99059.53
2023-04-01T01:41:05.287Z,99058.63
2023-04-01T01:43:42.546Z,99060.44
2023-04-01T01:46:15.697Z,99059.50
2023-04-01T01:48:44.775Z,99059.50
2023-04-01T01:51:12.145Z,99055.94
2023-04-01T01:53:39.271Z,99063.03
2023-04-01T01:56:07.233Z,99063.88
2023-04-01T01:58:43.914Z,99063.88
2023-04-01T02:01:20.760Z,99065.59
2023-04-01T02:03:49.261Z,99073.47
2023-04-01T02:06:22.260Z,99080.41
2023-04-01T02:09:02.207Z,99076.00
2023-04-01T02:11:45.167Z,99083.03
2023-04-01T02:14:32.136Z,99082.94
2023-04-01T02:17:10.662Z,99079.47
2023-04-01T02:19:52.671Z,99087.34
2023-04-01T02:22:26.170Z,99078.56
2023-04-01T02:24:59.441Z,99082.94
2023-04-01T02:27:26.925Z,99089.94
2023-04-01T02:29:54.324Z,99090.78
2023-04-01T02:32:22.348Z,99096.03
2023-04-01T02:34:50.223Z,99089.91
2023-04-01T02:37:17.908Z,99091.63
2023-04-01T02:39:45.839Z,99091.66
2023-04-01T02:42:14.356Z,99097.75
2023-04-01T02:44:41.801Z,99094.25
2023-04-01T02:47:08.953Z,99095.16
2023-04-01T02:49:36.200Z,99099.53
2023-04-01T02:52:03.313Z,99098.69
2023-04-01T02:54:30.385Z,99110.03
2023-04-01T02:56:57.618Z,99103.94
2023-04-01T02:59:24.692Z,99102.16
2023-04-01T03:01:51.849Z,99102.22
2023-04-01T03:04:18.938Z,99108.38
2023-04-01T03:06:46.247Z,99112.91
2023-04-01T03:09:13.390Z,99116.44
2023-04-01T03:11:41.808Z,99120.03
2023-04-01T03:14:08.943Z,99119.16
2023-04-01T03:16:36.326Z,99117.44
2023-04-01T03:19:03.465Z,99123.56
2023-04-01T03:21:30.586Z,99123.56
2023-04-01T03:23:57.982Z,99128.88
2023-04-01T03:26:30.809Z,99122.66
2023-04-01T03:28:58.055Z,99124.47
2023-04-01T03:31:25.999Z,99126.22
2023-04-01T03:33:53.158Z,99137.56
2023-04-01T03:36:20.446Z,99132.25
2023-04-01T03:38:47.893Z,99134.97
2023-04-01T03:41:18.982Z,99135.03
2023-04-01T03:43:46.353Z,99136.84
2023-04-01T03:46:19.565Z,99139.47
2023-04-01T03:48:47.027Z,99139.38
2023-04-01T03:51:14.477Z,99138.44
2023-04-01T03:53:41.679Z,99146.41
2023-04-01T03:56:10.057Z,99148.19
2023-04-01T03:58:39.717Z,99150.81
2023-04-01T04:01:22.411Z,99146.41
2023-04-01T04:03:51.345Z,99147.31
2023-04-01T04:06:20.262Z,99149.94
2023-04-01T04:08:47.659Z,99154.38
2023-04-01T04:11:16.205Z,99156.09
2023-04-01T04:13:44.473Z,99155.19
2023-04-01T04:16:12.095Z,99157.00
2023-04-01T04:18:39.212Z,99156.97
2023-04-01T04:21:06.832Z,99172.78
2023-04-01T04:23:34.665Z,99172.00
2023-04-01T04:26:05.889Z,99168.53
2023-04-01T04:28:34.134Z,99172.00
2023-04-01T04:31:01.877Z,99175.59
2023-04-01T04:33:29.624Z,99173.84
2023-04-01T04:35:59.199Z,99172.09
2023-04-01T04:38:27.302Z,99182.69
2023-04-01T04:40:54.690Z,99182.69
2023-04-01T04:43:22.559Z,99180.97
2023-04-01T04:45:49.741Z,99188.84
2023-04-01T04:48:19.919Z,99182.72
2023-04-01T04:50:51.922Z,99187.09
2023-04-01T04:53:20.436Z,99193.25
2023-04-01T04:55:50.473Z,99202.88
2023-04-01T04:58:18.861Z,99206.50
2023-04-01T05:00:47.110Z,99210.00
2023-04-01T05:03:15.088Z,99211.72
2023-04-01T05:05:54.642Z,99209.91
2023-04-01T05:08:22.241Z,99209.09
2023-04-01T05:10:49.545Z,99222.22
2023-04-01T05:13:16.592Z,99217.00
2023-04-01T05:15:43.652Z,99231.00
2023-04-01T05:18:10.787Z,99240.66
2023-04-01T05:20:37.899Z,99231.00
2023-04-01T05:23:05.278Z,99234.63
2023-04-01T05:25:32.679Z,99251.22
2023-04-01T05:27:59.891Z,99245.09
2023-04-01T05:30:27.240Z,99249.53
2023-04-01T05:32:54.516Z,99253.91
2023-04-01T05:35:22.030Z,99252.97
2023-04-01T05:37:49.131Z,99251.22
2023-04-01T05:40:16.295Z,99254.75
2023-04-01T05:42:43.321Z,99260.00
2023-04-01T05:45:11.326Z,99263.56
2023-04-01T05:47:38.412Z,99261.72
2023-04-01T05:50:06.078Z,99267.06
2023-04-01T05:52:33.131Z,99274.16
2023-04-01T05:55:01.377Z,99280.31
2023-04-01T05:57:29.268Z,99285.56
2023-04-01T05:59:56.445Z,99288.19
2023-04-01T06:02:23.799Z,99291.72
2023-04-01T06:05:03.582Z,99282.94
2023-04-01T06:07:30.857Z,99300.41
2023-04-01T06:09:57.972Z,99297.78
2023-04-01T06:12:38.008Z,99300.41
2023-04-01T06:15:16.619Z,99312.56
2023-04-01T06:17:56.235Z,99311.50
2023-04-01T06:20:55.005Z,99318.47
2023-04-01T06:24:05.336Z,99324.59
2023-04-01T06:26:54.925Z,99324.59
2023-04-01T06:29:43.598Z,99324.59
2023-04-01T06:32:29.947Z,99330.69
2023-04-01T06:35:18.323Z,99339.31
2023-04-01T06:38:11.581Z,99341.03
2023-04-01T06:41:21.575Z,99345.41
2023-04-01T06:44:19.980Z,99347.16
2023-04-01T06:47:00.446Z,99350.56
2023-04-01T06:50:24.666Z,99356.59
2023-04-01T06:53:37.156Z,99360.88
2023-04-01T06:56:13.946Z,99357.41
2023-04-01T06:59:12.864Z,99366.06
2023-04-01T07:01:55.943Z,99367.88
2023-04-01T07:04:40.220Z,99376.47
2023-04-01T07:07:36.408Z,99382.38
2023-04-01T07:10:38.048Z,99378.84
2023-04-01T07:13:23.115Z,99386.44
2023-04-01T07:16:18.125Z,99382.91
2023-04-01T07:19:36.382Z,99390.00
2023-04-01T07:22:38.124Z,99398.84
2023-04-01T07:25:30.662Z,99396.16
2023-04-01T07:28:13.368Z,99403.03
2023-04-01T07:30:53.252Z,99409.00
2023-04-01T07:33:52.068Z,99420.31
2023-04-01T07:36:46.009Z,99421.06
2023-04-01T07:39:32.847Z,99427.19
2023-04-01T07:42:10.902Z,99430.56
2023-04-01T07:45:22.411Z,99416.59
2023-04-01T07:48:11.069Z,99432.38
2023-04-01T07:51:13.741Z,99432.75
2023-04-01T07:54:18.363Z,99434.97
2023-04-01T07:57:23.449Z,99444.56
2023-04-01T08:00:44.656Z,99444.47
2023-04-01T08:03:32.570Z,99450.44
2023-04-01T08:06:19.552Z,99452.66
2023-04-01T08:09:21.652Z,99457.41
2023-04-01T08:12:26.071Z,99456.66
2023-04-01T08:15:37.210Z,99467.41
2023-04-01T08:18:19.120Z,99464.66
2023-04-01T08:20:56.833Z,99469.22
2023-04-01T08:23:47.910Z,99477.50
2023-04-01T08:26:36.459Z,99482.31
2023-04-01T08:29:05.690Z,99484.94
2023-04-01T08:31:52.984Z,99486.47
2023-04-01T08:34:27.170Z,99484.03
2023-04-01T08:37:04.196Z,99485.22
2023-04-01T08:39:40.611Z,99482.78
2023-04-01T08:43:12.986Z,99489.47
2023-04-01T08:46:11.882Z,99496.72
2023-04-01T08:49:02.767Z,99494.13
2023-04-01T08:52:07.979Z,99499.59
2023-04-01T08:55:01.085Z,99510.09
2023-04-01T08:57:57.846Z,99511.09
2023-04-01T09:00:58.044Z,99515.59
2023-04-01T09:04:02.076Z,99521.88
2023-04-01T09:07:10.423Z,99529.81
2023-04-01T09:10:16.205Z,99535.81
2023-04-01T09:13:08.311Z,99540.19
2023-04-01T09:15:43.578Z,99540.44
2023-04-01T09:18:20.034Z,99536.44
2023-04-01T09:21:47.399Z,99554.69
2023-04-01T09:25:15.663Z,99551.84
2023-04-01T09:27:54.723Z,99548.81
2023-04-01T09:30:55.289Z,99548.66
2023-04-01T09:34:07.204Z,99551.72
2023-04-01T09:37:05.614Z,99555.34
2023-04-01T09:39:43.461Z,99559.84
2023-04-01T09:42:39.774Z,99560.75
2023-04-01T09:45:34.782Z,99575.47
2023-04-01T09:48:37.553Z,99581.38
2023-04-01T09:51:33.177Z,99581.38
2023-04-01T09:54:13.302Z,99581.91
2023-04-01T09:57:49.686Z,99588.53
2023-04-01T10:00:53.432Z,99597.81
2023-04-01T10:03:52.843Z,99594.03
2023-04-01T10:07:03.886Z,99595.41
2023-04-01T10:10:08.189Z,99607.19
2023-04-01T10:13:05.672Z,99609.72
2023-04-01T10:15:57.589Z,99600.72
2023-04-01T10:18:52.325Z,99609.28
2023-04-01T10:21:51.059Z,99608.31
2023-04-01T10:25:21.637Z,99614.75
2023-04-01T10:28:24.895Z,99614.78
2023-04-01T10:31:36.375Z,99629.72
2023-04-01T10:34:42.991Z,99626.34
2023-04-01T10:38:04.595Z,99628.19
2023-04-01T10:41:07.442Z,99627.38
2023-04-01T10:44:20.378Z,99635.91
2023-04-01T10:47:18.125Z,99627.91
2023-04-01T10:50:23.452Z,99631.94
2023-04-01T10:53:07.789Z,99632.78
2023-04-01T10:56:09.069Z,99633.22
2023-04-01T10:59:36.194Z,99634.94
2023-04-01T11:02:43.893Z,99641.16
2023-04-01T11:05:35.302Z,99648.34
2023-04-01T11:08:45.479Z,99650.28
2023-04-01T11:11:57.170Z,99657.81
2023-04-01T11:14:58.299Z,99650.25
2023-04-01T11:17:43.311Z,99659.09
2023-04-01T11:20:22.190Z,99663.22
2023-04-01T11:23:04.360Z,99659.63
2023-04-01T11:26:22.331Z,99664.22
2023-04-01T11:29:06.932Z,99667.91
2023-04-01T11:32:23.003Z,99669.75
2023-04-01T11:35:26.738Z,99672.44
2023-04-01T11:37:59.494Z,99678.69
2023-04-01T11:40:47.562Z,99677.78
2023-04-01T11:43:33.582Z,99679.38
2023-04-01T11:46:22.217Z,99684.59
2023-04-01T11:49:46.027Z,99694.81
2023-04-01T11:52:40.278Z,99699.94
2023-04-01T11:55:51.085Z,99701.91
2023-04-01T11:58:50.788Z,99701.06
2023-04-01T12:01:46.210Z,99705.44
2023-04-01T12:04:28.778Z,99715.88
2023-04-01T12:07:09.678Z,99711.63
2023-04-01T12:10:11.981Z,99719.13
2023-04-01T12:13:29.081Z,99726.22
2023-04-01T12:16:28.668Z,99720.53
2023-04-01T12:19:49.747Z,99731.97
2023-04-01T12:23:05.577Z,99729.38
2023-04-01T12:25:56.120Z,99731.47
2023-04-01T12:28:51.567Z,99736.94
2023-04-01T12:31:48.965Z,99734.63
2023-04-01T12:34:54.140Z,99741.31
2023-04-01T12:38:19.688Z,99745.75
2023-04-01T12:41:29.402Z,99748.69
2023-04-01T12:44:14.508Z,99756.78
2023-04-01T12:47:07.980Z,99753.41
2023-04-01T12:50:04.041Z,99756.59
2023-04-01T12:52:52.232Z,99763.34
2023-04-01T12:55:45.627Z,99768.22
2023-04-01T12:58:34.061Z,99770.72
2023-04-01T13:01:33.277Z,99774.44
2023-04-01T13:04:19.789Z,99767.69
2023-04-01T13:07:43.719Z,99775.19
2023-04-01T13:11:15.378Z,99774.59
2023-04-01T13:14:29.114Z,99786.13
2023-04-01T13:17:30.562Z,99783.44
2023-04-01T13:20:06.597Z,99784.28
2023-04-01T13:23:20.908Z,99791.06
2023-04-01T13:26:19.871Z,99791.75
2023-04-01T13:28:58.878Z,99791.66
2023-04-01T13:32:25.567Z,99800.41
2023-04-01T13:35:12.664Z,99799.31
2023-04-01T13:38:16.438Z,99805.47
2023-04-01T13:41:03.930Z,99809.22
2023-04-01T13:43:50.926Z,99805.94
2023-04-01T13:46:36.040Z,99816.56
2023-04-01T13:49:42.491Z,99822.66
2023-04-01T13:52:38.876Z,99814.09
2023-04-01T13:56:01.119Z,99811.09
2023-04-01T13:59:14.984Z,99820.03
2023-04-01T14:02:09.473Z,99818.34
2023-04-01T14:04:54.555Z,99827.16
2023-04-01T14:07:47.827Z,99827.06
2023-04-01T14:10:48.641Z,99829.84
2023-04-01T14:13:32.314Z,99837.84
2023-04-01T14:16:12.920Z,99837.72
2023-04-01T14:19:15.057Z,99842.31
2023-04-01T14:22:34.001Z,99845.06
2023-04-01T14:25:38.146Z,99840.78
2023-04-01T14:29:36.360Z,99852.50
2023-04-01T14:32:37.377Z,99853.56
2023-04-01T14:40:02.033Z,99869.63
2023-04-01T14:42:29.069Z,99860.94
2023-04-01T14:45:38.134Z,99862.91
2023-04-01T14:48:39.645Z,99871.88
2023-04-01T14:51:32.111Z,99870.16
2023-04-01T14:54:11.574Z,99873.63
2023-04-01T14:56:41.113Z,99880.78
2023-04-01T14:59:32.009Z,99887.75
2023-04-01T15:02:08.198Z,99887.72
2023-04-01T15:04:57.040Z,99886.03
2023-04-01T15:07:55.956Z,99891.22
2023-04-01T15:10:36.199Z,99895.72
2023-04-01T15:14:07.085Z,99904.44
2023-04-01T15:17:08.397Z,99910.59
2023-04-01T15:20:02.846Z,99914.94
2023-04-01T15:22:57.049Z,99914.94
2023-04-01T15:26:21.028Z,99916.16
2023-04-01T15:29:31.380Z,99923.31
2023-04-01T15:32:27.059Z,99924.25
2023-04-01T15:35:36.958Z,99921.66
2023-04-01T15:38:26.005Z,99933.91
2023-04-01T15:41:15.829Z,99937.44
2023-04-01T15:43:49.856Z,99943.69
2023-04-01T15:46:46.808Z,99946.31
2023-04-01T15:49:46.283Z,99948.03
2023-04-01T15:52:39.255Z,99951.59
2023-04-01T15:55:46.118Z,99955.91
2023-04-01T15:58:53.366Z,99953.22
2023-04-01T16:01:53.528Z,99955.75
2023-04-01T16:05:17.255Z,99955.69
2023-04-01T16:08:18.423Z,99964.44
2023-04-01T16:10:56.510Z,99962.81
2023-04-01T16:13:52.912Z,99967.41
2023-04-01T16:16:28.964Z,99974.56
2023-04-01T16:19:18.494Z,99973.75
2023-04-01T16:22:30.723Z,99973.81
2023-04-01T16:25:36.374Z,99984.34
2023-04-01T16:28:40.813Z,99980.94
2023-04-01T16:31:38.292Z,99986.22
2023-04-01T16:34:21.765Z,99988.03
2023-04-01T16:37:17.663Z,99984.59
2023-04-01T16:40:18.903Z,99994.28
2023-04-01T16:43:18.636Z,99992.59
2023-04-01T16:46:08.551Z,99994.34
2023-04-01T16:49:23.247Z,100001.31
2023-04-01T16:52:04.738Z,100011.00
2023-04-01T16:55:04.442Z,100006.66
2023-04-01T16:57:53.606Z,100003.25
2023-04-01T17:00:37.484Z,100004.13
2023-04-01T17:03:33.519Z,100014.66
2023-04-01T17:06:52.518Z,100009.50
2023-04-01T17:09:32.823Z,100011.28
2023-04-01T17:12:29.366Z,100017.41
2023-04-01T17:15:44.185Z,100031.50
2023-04-01T17:18:51.246Z,100038.53
2023-04-01T17:21:57.658Z,100037.66
2023-04-01T17:24:42.788Z,100035.94
2023-04-01T17:27:32.813Z,100054.34
2023-04-01T17:30:32.233Z,100049.09
2023-04-01T17:33:21.293Z,100074.53
2023-04-01T17:36:36.917Z,100068.41
2023-04-01T17:39:39.873Z,100069.31
2023-04-01T17:42:43.683Z,100079.84
2023-04-01T17:45:29.746Z,100086.84
2023-04-01T17:48:16.422Z,100084.22
2023-04-01T17:51:07.638Z,100099.13
2023-04-01T17:54:08.106Z,100099.13
2023-04-01T17:56:44.544Z,100102.63
2023-04-01T17:59:30.608Z,100108.75
2023-04-01T18:02:51.716Z,100109.63
2023-04-01T18:06:13.758Z,100113.13
2023-04-01T18:09:05.200Z,100125.44
2023-04-01T18:11:55.421Z,100138.56
2023-04-01T18:15:00.075Z,100142.06
2023-04-01T18:17:47.718Z,100149.88
2023-04-01T18:21:00.982Z,100148.13
2023-04-01T18:24:01.579Z,100162.13
2023-04-01T18:26:34.469Z,100169.09
2023-04-01T18:29:38.434Z,100175.19
2023-04-01T18:33:10.754Z,100176.97
2023-04-01T18:36:05.254Z,100184.88
2023-04-01T18:38:46.695Z,100191.88
2023-04-01T18:41:36.828Z,100204.13
2023-04-01T18:44:25.823Z,100206.78
2023-04-01T18:47:44.664Z,100205.84
2023-04-01T18:50:34.167Z,100218.16
2023-04-01T18:53:19.649Z,100232.19
2023-04-01T18:56:10.938Z,100233.06
2023-04-01T18:58:59.245Z,100240.97
2023-04-01T19:01:41.687Z,100246.25
2023-04-01T19:04:31.846Z,100259.44
2023-04-01T19:07:27.696Z,100268.19
2023-04-01T19:09:55.431Z,100266.50
2023-04-01T19:12:40.927Z,100280.53
2023-04-01T19:16:09.773Z,100287.59
2023-04-01T19:19:07.100Z,100279.75
2023-04-01T19:21:47.690Z,100292.03
2023-04-01T19:24:39.729Z,100307.78
2023-04-01T19:27:40.006Z,100307.84
2023-04-01T19:30:24.919Z,100303.47
2023-04-01T19:33:37.233Z,100316.69
2023-04-01T19:36:50.114Z,100319.31
2023-04-01T19:39:45.708Z,100331.59
2023-04-01T19:42:21.069Z,100330.72
2023-04-01T19:44:55.591Z,100332.53
2023-04-01T19:48:08.868Z,100341.31
2023-04-01T19:50:54.105Z,100353.63
2023-04-01T19:53:56.617Z,100359.78
2023-04-01T19:56:40.770Z,100359.81
2023-04-01T19:59:32.372Z,100362.47
2023-04-01T20:02:40.835Z,100372.13
2023-04-01T20:05:34.528Z,100382.66
2023-04-01T20:08:13.825Z,100380.03
2023-04-01T20:11:18.495Z,100392.28
2023-04-01T20:13:59.954Z,100403.69
2023-04-01T20:17:02.347Z,100407.19
2023-04-01T20:19:50.539Z,100409.81
2023-04-01T20:22:38.518Z,100415.94
2023-04-01T20:25:30.476Z,100428.28
2023-04-01T20:28:31.548Z,100433.53
2023-04-01T20:31:25.680Z,100439.69
2023-04-01T20:34:32.012Z,100449.31
2023-04-01T20:37:25.505Z,100458.13
2023-04-01T20:40:36.433Z,100456.34
2023-04-01T20:43:31.896Z,100465.13
2023-04-01T20:46:24.280Z,100481.78
2023-04-01T20:49:25.955Z,100478.25
2023-04-01T20:52:13.969Z,100488.78
2023-04-01T20:54:52.756Z,100497.53
2023-04-01T20:57:49.329Z,100502.81
2023-04-01T21:01:01.342Z,100507.19
2023-04-01T21:03:42.592Z,100513.31
2023-04-01T21:06:36.816Z,100522.94
2023-04-01T21:09:29.654Z,100520.31
2023-04-01T21:12:24.242Z,100524.69
2023-04-01T21:15:16.440Z,100530.81
2023-04-01T21:18:27.577Z,100530.81
2023-04-01T21:21:22.496Z,100540.44
2023-04-01T21:24:29.945Z,100554.44
2023-04-01T21:27:46.811Z,100556.19
2023-04-01T21:30:46.338Z,100566.69
2023-04-01T21:34:00.118Z,100579.81
2023-04-01T21:36:47.990Z,100571.06
2023-04-01T21:39:49.637Z,100588.59
2023-04-01T21:43:02.594Z,100593.81
2023-04-01T21:45:53.692Z,100603.47
2023-04-01T21:49:05.446Z,100598.19
2023-04-01T21:52:04.149Z,100609.56
2023-04-01T21:55:17.379Z,100631.44
2023-04-01T21:58:09.024Z,100627.03
2023-04-01T22:01:26.609Z,100621.81
2023-04-01T22:04:44.126Z,100631.44
2023-04-01T22:07:22.223Z,100638.44
2023-04-01T22:10:19.419Z,100648.94
2023-04-01T22:13:14.630Z,100648.91
2023-04-01T22:16:30.510Z,100643.66
2023-04-01T22:19:30.589Z,100661.16
2023-04-01T22:22:23.362Z,100658.53
2023-04-01T22:25:25.428Z,100660.25
2023-04-01T22:28:30.268Z,100671.63
2023-04-01T22:31:04.174Z,100679.44
2023-04-01T22:33:49.090Z,100684.66
2023-04-01T22:36:53.571Z,100680.28
2023-04-01T22:40:08.709Z,100685.53
2023-04-01T22:42:47.781Z,100691.59
2023-04-01T22:45:15.131Z,100691.59
2023-04-01T22:48:14.877Z,100702.09
2023-04-01T22:51:24.686Z,100701.22
2023-04-01T22:54:10.393Z,100704.72
2023-04-01T22:56:48.876Z,100720.47
2023-04-01T22:59:25.108Z,100723.94
2023-04-01T23:02:12.927Z,100726.53
2023-04-01T23:04:44.341Z,100739.66
2023-04-01T23:07:58.938Z,100743.13
2023-04-01T23:10:46.444Z,100742.19
2023-04-01T23:13:20.686Z,100747.41
2023-04-01T23:15:48.915Z,100746.53
2023-04-01T23:18:54.479Z,100754.38
2023-04-01T23:21:42.107Z,100759.63
2023-04-01T23:24:34.884Z,100763.06
2023-04-01T23:27:22.413Z,100765.69
2023-04-01T23:29:49.752Z,100780.56
2023-04-01T23:32:20.771Z,100777.91
2023-04-01T23:34:52.184Z,100785.78
2023-04-01T23:37:21.226Z,100791.03
2023-04-01T23:39:53.044Z,100797.13
2023-04-01T23:42:31.333Z,100804.09
2023-04-01T23:45:21.603Z,100811.94
2023-04-01T23:47:51.482Z,100811.88
2023-04-01T23:50:23.993Z,100822.34
2023-04-01T23:53:13.441Z,100822.34
2023-04-01T23:55:43.140Z,100829.28
2023-04-01T23:58:22.799Z,100833.63
